createdAt,value
2018-12-26T00:00:31.602Z,8.00
2018-12-26T00:03:01.633Z,7.40
2018-12-26T00:05:31.654Z,9.20
2018-12-26T00:08:01.689Z,8.53
2018-12-26T00:10:50.104Z,9.40
2018-12-26T00:13:19.895Z,10.70
2018-12-26T00:16:08.572Z,10.00
2018-12-26T00:18:39.316Z,10.37
2018-12-26T00:21:09.404Z,11.60
2018-12-26T00:23:39.104Z,12.37
2018-12-26T00:26:09.339Z,15.43
2018-12-26T00:28:39.034Z,12.00
2018-12-26T00:31:08.938Z,11.67
2018-12-26T00:33:38.491Z,17.30
2018-12-26T00:36:08.580Z,17.97
2018-12-26T00:38:37.855Z,13.90
2018-12-26T00:41:07.535Z,14.80
2018-12-26T00:43:37.051Z,16.20
2018-12-26T00:46:07.071Z,16.53
2018-12-26T00:48:36.769Z,15.83
2018-12-26T00:51:06.639Z,14.60
2018-12-26T00:53:35.946Z,16.00
2018-12-26T00:56:10.399Z,16.87
2018-12-26T00:58:36.575Z,16.43
2018-12-26T01:01:05.869Z,17.63
2018-12-26T01:03:36.623Z,16.93
2018-12-26T01:06:06.185Z,18.17
2018-12-26T01:08:35.599Z,16.97
2018-12-26T01:11:05.831Z,20.97
2018-12-26T01:13:35.396Z,21.50
2018-12-26T01:16:04.636Z,19.73
2018-12-26T01:18:35.078Z,18.33
2018-12-26T01:21:04.761Z,24.40
2018-12-26T01:23:34.618Z,23.03
2018-12-26T01:26:03.874Z,26.27
2018-12-26T01:28:34.259Z,24.03
2018-12-26T01:31:03.686Z,19.00
2018-12-26T01:33:33.463Z,22.10
2018-12-26T01:36:03.000Z,18.87
2018-12-26T01:38:33.450Z,19.70
2018-12-26T01:41:03.016Z,23.07
2018-12-26T01:43:33.020Z,24.20
2018-12-26T01:46:02.323Z,23.40
2018-12-26T01:48:32.670Z,22.00
2018-12-26T01:51:02.377Z,24.77
2018-12-26T01:53:33.175Z,24.97
2018-12-26T01:56:27.894Z,26.70
2018-12-26T01:58:53.304Z,25.30
2018-12-26T02:01:23.202Z,25.20
2018-12-26T02:03:53.326Z,28.00
2018-12-26T02:06:22.954Z,25.67
2018-12-26T02:08:53.611Z,29.73
2018-12-26T02:11:23.033Z,28.10
2018-12-26T02:13:52.569Z,31.10
2018-12-26T02:16:21.858Z,33.50
2018-12-26T02:18:51.463Z,33.63
2018-12-26T02:21:21.632Z,32.07
2018-12-26T02:23:51.776Z,25.20
2018-12-26T02:26:21.023Z,31.43
2018-12-26T02:28:50.798Z,30.57
2018-12-26T02:31:21.138Z,32.37
2018-12-26T02:33:50.962Z,40.83
2018-12-26T02:36:20.637Z,39.70
2018-12-26T02:38:50.589Z,28.57
2018-12-26T02:41:20.832Z,39.23
2018-12-26T02:43:50.818Z,35.30
2018-12-26T02:46:21.287Z,32.10
2018-12-26T02:48:50.890Z,30.77
2018-12-26T02:51:20.998Z,37.27
2018-12-26T02:53:50.944Z,34.17
2018-12-26T02:56:20.222Z,39.47
2018-12-26T02:58:50.297Z,34.90
2018-12-26T03:01:19.564Z,34.23
2018-12-26T03:03:48.856Z,38.63
2018-12-26T03:06:37.334Z,38.43
2018-12-26T03:09:08.242Z,41.20
2018-12-26T03:11:37.826Z,36.90
2018-12-26T03:14:07.080Z,34.97
2018-12-26T03:16:36.373Z,31.50
2018-12-26T03:19:05.713Z,40.03
2018-12-26T03:21:35.536Z,42.27
2018-12-26T03:24:05.277Z,36.67
2018-12-26T03:26:34.939Z,38.90
2018-12-26T03:29:04.184Z,38.47
2018-12-26T03:31:33.737Z,38.17
2018-12-26T03:34:03.052Z,31.30
2018-12-26T03:36:33.525Z,41.17
2018-12-26T03:39:02.853Z,39.37
2018-12-26T03:41:32.445Z,36.20
2018-12-26T03:44:02.105Z,34.30
2018-12-26T03:46:32.102Z,40.63
2018-12-26T03:49:01.860Z,38.43
2018-12-26T03:51:31.839Z,40.30
2018-12-26T03:54:01.442Z,43.67
2018-12-26T03:56:31.067Z,38.43
2018-12-26T03:59:00.682Z,43.00
2018-12-26T04:01:30.336Z,37.97
2018-12-26T04:04:01.978Z,38.57
2018-12-26T04:06:31.251Z,36.07
2018-12-26T04:09:00.943Z,38.10
2018-12-26T04:11:31.031Z,42.87
2018-12-26T04:14:00.947Z,39.97
2018-12-26T04:16:30.196Z,35.20
2018-12-26T04:19:00.266Z,36.90
2018-12-26T04:21:30.033Z,40.03
2018-12-26T04:23:59.313Z,34.47
2018-12-26T04:26:29.410Z,32.30
2018-12-26T04:28:59.228Z,45.30
2018-12-26T04:31:28.466Z,44.07
2018-12-26T04:33:58.050Z,42.70
2018-12-26T04:36:28.263Z,39.80
2018-12-26T04:38:57.479Z,37.77
2018-12-26T04:41:27.317Z,40.63
2018-12-26T04:43:57.332Z,34.40
2018-12-26T04:46:26.955Z,32.90
2018-12-26T04:48:56.560Z,37.40
2018-12-26T04:51:26.655Z,35.63
2018-12-26T04:53:55.921Z,39.00
2018-12-26T04:56:25.807Z,42.27
2018-12-26T04:58:57.259Z,43.03
2018-12-26T05:01:26.560Z,38.03
2018-12-26T05:03:55.973Z,40.17
2018-12-26T05:06:25.830Z,38.10
2018-12-26T05:08:55.538Z,39.27
2018-12-26T05:11:25.628Z,36.67
2018-12-26T05:13:54.897Z,37.30
2018-12-26T05:16:24.272Z,39.97
2018-12-26T05:18:53.567Z,30.70
2018-12-26T05:21:41.954Z,42.57
2018-12-26T05:24:11.655Z,39.53
2018-12-26T05:26:40.921Z,36.63
2018-12-26T05:29:10.922Z,38.20
2018-12-26T05:31:40.472Z,40.37
2018-12-26T05:34:10.577Z,39.60
2018-12-26T05:36:39.812Z,41.73
2018-12-26T05:39:09.479Z,42.70
2018-12-26T05:41:39.102Z,32.80
2018-12-26T05:44:08.973Z,35.87
2018-12-26T05:46:38.589Z,37.03
2018-12-26T05:49:27.506Z,40.67
2018-12-26T05:51:57.454Z,38.40
2018-12-26T05:54:27.054Z,47.87
2018-12-26T05:56:56.698Z,43.43
2018-12-26T05:59:25.923Z,44.87
2018-12-26T06:01:55.553Z,40.60
2018-12-26T06:04:24.823Z,48.33
2018-12-26T06:06:55.343Z,48.20
2018-12-26T06:09:25.166Z,52.63
2018-12-26T06:11:55.094Z,50.67
2018-12-26T06:14:24.839Z,56.87
2018-12-26T06:16:54.498Z,49.40
2018-12-26T06:19:23.902Z,46.33
2018-12-26T06:21:53.187Z,52.73
2018-12-26T06:24:22.828Z,57.13
2018-12-26T06:26:53.215Z,46.80
2018-12-26T06:29:22.809Z,58.90
2018-12-26T06:31:52.065Z,57.10
2018-12-26T06:34:21.467Z,55.40
2018-12-26T06:36:50.721Z,49.10
2018-12-26T06:39:20.136Z,61.07
2018-12-26T06:41:49.718Z,54.80
2018-12-26T06:44:19.098Z,52.30
2018-12-26T06:46:48.440Z,50.87
2018-12-26T06:49:18.341Z,54.93
2018-12-26T06:51:47.732Z,43.93
2018-12-26T06:54:17.434Z,44.63
2018-12-26T06:56:46.992Z,43.97
2018-12-26T06:59:17.042Z,49.10
2018-12-26T07:01:47.035Z,38.07
2018-12-26T07:04:17.124Z,41.53
2018-12-26T07:06:46.831Z,40.67
2018-12-26T07:09:17.085Z,44.27
2018-12-26T07:11:46.603Z,43.00
2018-12-26T07:14:16.653Z,56.13
2018-12-26T07:16:46.532Z,42.67
2018-12-26T07:19:16.335Z,52.03
2018-12-26T07:21:47.857Z,48.23
2018-12-26T07:24:17.059Z,48.37
2018-12-26T07:26:46.987Z,60.60
2018-12-26T07:29:16.291Z,57.53
2018-12-26T07:31:45.663Z,57.30
2018-12-26T07:34:15.378Z,63.03
2018-12-26T07:36:45.988Z,54.90
2018-12-26T07:39:16.315Z,54.73
2018-12-26T07:41:46.106Z,56.40
2018-12-26T07:44:16.059Z,56.30
2018-12-26T07:46:46.122Z,61.60
2018-12-26T07:49:15.692Z,53.47
2018-12-26T07:51:45.626Z,57.50
2018-12-26T07:54:15.232Z,54.37
2018-12-26T07:56:44.630Z,51.97
2018-12-26T07:59:15.302Z,54.30
2018-12-26T08:01:45.342Z,51.37
2018-12-26T08:04:15.363Z,53.13
2018-12-26T08:06:45.035Z,51.77
2018-12-26T08:09:15.137Z,50.37
2018-12-26T08:11:50.746Z,54.77
2018-12-26T08:14:21.133Z,52.43
2018-12-26T08:16:50.976Z,47.10
2018-12-26T08:19:21.260Z,56.30
2018-12-26T08:21:51.212Z,54.50
2018-12-26T08:24:21.650Z,47.67
2018-12-26T08:26:53.650Z,42.60
2018-12-26T08:29:23.439Z,48.63
2018-12-26T08:31:53.809Z,53.17
2018-12-26T08:34:24.266Z,52.97
2018-12-26T08:36:54.293Z,52.33
2018-12-26T08:39:23.523Z,48.70
2018-12-26T08:41:53.547Z,51.27
2018-12-26T08:44:25.129Z,43.70
2018-12-26T08:46:56.243Z,52.20
2018-12-26T08:49:25.447Z,42.53
2018-12-26T08:51:55.160Z,47.53
2018-12-26T08:54:24.797Z,42.20
2018-12-26T08:56:54.814Z,52.73
2018-12-26T08:59:25.152Z,43.73
2018-12-26T09:01:55.995Z,38.50
2018-12-26T09:04:27.799Z,45.93
2018-12-26T09:06:57.210Z,42.07
2018-12-26T09:09:26.738Z,48.33
2018-12-26T09:11:56.029Z,47.90
2018-12-26T09:14:25.800Z,43.23
2018-12-26T09:16:55.396Z,48.53
2018-12-26T09:19:25.480Z,51.23
2018-12-26T09:21:55.231Z,57.30
2018-12-26T09:24:24.972Z,54.20
2018-12-26T09:26:54.852Z,56.33
2018-12-26T09:29:24.751Z,53.73
2018-12-26T09:31:54.007Z,58.03
2018-12-26T09:34:23.281Z,53.13
2018-12-26T09:36:53.016Z,63.83
2018-12-26T09:39:22.909Z,55.90
2018-12-26T09:41:52.849Z,53.73
2018-12-26T09:44:22.628Z,58.47
2018-12-26T09:46:52.083Z,51.00
2018-12-26T09:49:22.275Z,59.27
2018-12-26T09:51:51.570Z,57.30
2018-12-26T09:54:21.553Z,59.07
2018-12-26T09:56:50.977Z,63.70
2018-12-26T09:59:20.574Z,68.37
2018-12-26T10:01:50.157Z,71.27
2018-12-26T10:04:19.443Z,66.13
2018-12-26T10:06:49.185Z,67.37
2018-12-26T10:09:19.282Z,82.07
2018-12-26T10:11:48.844Z,85.10
2018-12-26T10:14:18.466Z,72.73
2018-12-26T10:16:47.682Z,75.23
2018-12-26T10:19:17.255Z,85.17
2018-12-26T10:21:47.215Z,82.80
2018-12-26T10:24:17.112Z,80.73
2018-12-26T10:26:47.363Z,83.17
2018-12-26T10:29:16.954Z,87.27
2018-12-26T10:31:46.941Z,69.03
2018-12-26T10:34:16.683Z,89.17
2018-12-26T10:36:45.955Z,74.97
2018-12-26T10:39:15.886Z,84.77
2018-12-26T10:41:46.135Z,64.77
2018-12-26T10:44:15.685Z,78.33
2018-12-26T10:46:45.342Z,62.60
2018-12-26T10:49:15.397Z,56.90
2018-12-26T10:51:44.971Z,72.60
2018-12-26T10:54:14.679Z,66.53
2018-12-26T10:56:44.915Z,69.30
2018-12-26T10:59:14.878Z,68.43
2018-12-26T11:01:45.014Z,80.77
2018-12-26T11:04:14.599Z,71.07
2018-12-26T11:06:44.584Z,73.23
2018-12-26T11:09:14.673Z,67.57
2018-12-26T11:11:44.512Z,65.53
2018-12-26T11:14:14.881Z,65.27
2018-12-26T11:16:44.729Z,57.87
2018-12-26T11:19:14.463Z,56.50
2018-12-26T11:21:44.282Z,51.90
2018-12-26T11:24:14.088Z,61.83
2018-12-26T11:26:43.868Z,64.97
2018-12-26T11:29:18.592Z,59.10
2018-12-26T11:31:45.776Z,71.20
2018-12-26T11:34:15.418Z,65.93
2018-12-26T11:36:51.206Z,78.27
2018-12-26T11:39:20.891Z,57.53
2018-12-26T11:41:50.178Z,74.13
2018-12-26T11:44:20.202Z,66.57
2018-12-26T11:46:49.635Z,72.07
2018-12-26T11:49:19.254Z,77.40
2018-12-26T11:51:48.875Z,70.97
2018-12-26T11:54:19.140Z,80.90
2018-12-26T11:56:48.650Z,62.87
2018-12-26T11:59:26.981Z,74.80
2018-12-26T12:01:50.202Z,86.47
2018-12-26T12:04:19.895Z,74.80
2018-12-26T12:06:49.476Z,61.40
2018-12-26T12:09:18.759Z,59.90
2018-12-26T12:11:48.042Z,63.67
2018-12-26T12:14:17.723Z,68.53
2018-12-26T12:16:47.915Z,60.53
2018-12-26T12:19:17.917Z,63.67
2018-12-26T12:21:47.202Z,59.47
2018-12-26T12:24:16.726Z,67.43
2018-12-26T12:26:46.377Z,68.20
2018-12-26T12:29:16.034Z,77.97
2018-12-26T12:31:45.686Z,68.27
2018-12-26T12:34:15.284Z,66.43
2018-12-26T12:36:44.587Z,76.70
2018-12-26T12:39:14.809Z,71.47
2018-12-26T12:41:44.414Z,68.77
2018-12-26T12:44:14.059Z,98.43
2018-12-26T12:46:43.507Z,69.63
2018-12-26T12:49:13.133Z,80.20
2018-12-26T12:51:43.069Z,89.70
2018-12-26T12:54:12.345Z,82.10
2018-12-26T12:56:42.413Z,81.33
2018-12-26T12:59:12.073Z,106.70
2018-12-26T13:01:41.329Z,69.30
2018-12-26T13:04:10.891Z,104.70
2018-12-26T13:06:40.911Z,77.17
2018-12-26T13:09:10.471Z,83.13
2018-12-26T13:11:40.198Z,91.00
2018-12-26T13:14:09.886Z,87.70
2018-12-26T13:16:40.033Z,100.83
2018-12-26T13:19:09.467Z,74.77
2018-12-26T13:21:38.756Z,102.07
2018-12-26T13:24:08.958Z,65.17
2018-12-26T13:26:39.997Z,106.47
2018-12-26T13:29:09.263Z,94.73
2018-12-26T13:31:39.262Z,132.43
2018-12-26T13:34:08.882Z,86.53
2018-12-26T13:36:40.160Z,119.67
2018-12-26T13:39:10.218Z,85.57
2018-12-26T13:41:39.767Z,93.17
2018-12-26T13:44:09.211Z,89.07
2018-12-26T13:46:38.675Z,83.10
2018-12-26T13:49:08.979Z,102.20
2018-12-26T13:51:38.662Z,117.53
2018-12-26T13:54:08.236Z,118.07
2018-12-26T13:56:37.751Z,105.10
2018-12-26T13:59:07.173Z,117.13
2018-12-26T14:01:37.122Z,126.80
2018-12-26T14:04:06.394Z,134.73
2018-12-26T14:06:35.696Z,91.23
2018-12-26T14:09:05.367Z,101.33
2018-12-26T14:11:34.999Z,92.23
2018-12-26T14:14:05.173Z,90.77
2018-12-26T14:16:34.578Z,83.37
2018-12-26T14:19:04.224Z,101.73
2018-12-26T14:21:34.701Z,102.67
2018-12-26T14:24:04.465Z,103.50
2018-12-26T14:26:34.941Z,84.77
2018-12-26T14:29:04.648Z,108.73
2018-12-26T14:31:34.095Z,130.40
2018-12-26T14:34:03.767Z,111.77
2018-12-26T14:36:34.253Z,153.33
2018-12-26T14:39:05.043Z,105.30
2018-12-26T14:41:34.416Z,160.50
2018-12-26T14:44:03.791Z,138.20
2018-12-26T14:46:34.189Z,106.53
2018-12-26T14:49:06.745Z,145.57
2018-12-26T14:51:36.208Z,173.77
2018-12-26T14:54:07.406Z,108.00
2018-12-26T14:56:38.019Z,137.17
2018-12-26T14:59:08.054Z,112.03
2018-12-26T15:01:38.572Z,151.97
2018-12-26T15:04:08.245Z,124.20
2018-12-26T15:06:37.904Z,137.80
2018-12-26T15:09:08.936Z,122.40
2018-12-26T15:11:39.523Z,136.57
2018-12-26T15:14:09.577Z,112.07
2018-12-26T15:16:46.021Z,172.10
2018-12-26T15:19:21.730Z,116.20
2018-12-26T15:21:51.765Z,119.77
2018-12-26T15:24:21.391Z,132.80
2018-12-26T15:26:51.019Z,128.33
2018-12-26T15:29:20.525Z,131.97
2018-12-26T15:31:50.195Z,117.77
2018-12-26T15:34:19.613Z,107.37
2018-12-26T15:36:49.632Z,124.83
2018-12-26T15:39:18.943Z,121.03
2018-12-26T15:41:48.330Z,134.27
2018-12-26T15:44:18.076Z,129.40
2018-12-26T15:46:48.154Z,145.10
2018-12-26T15:49:17.974Z,114.80
2018-12-26T15:51:47.608Z,135.73
2018-12-26T15:54:17.486Z,142.77
2018-12-26T15:56:47.165Z,127.70
2018-12-26T15:59:17.089Z,161.03
2018-12-26T16:01:46.349Z,124.97
2018-12-26T16:04:15.672Z,124.23
2018-12-26T16:07:06.402Z,128.37
2018-12-26T16:09:36.410Z,155.40
2018-12-26T16:12:06.036Z,114.27
2018-12-26T16:14:36.131Z,123.50
2018-12-26T16:17:05.723Z,109.97
2018-12-26T16:19:34.998Z,131.60
2018-12-26T16:22:04.346Z,110.43
2018-12-26T16:24:33.942Z,112.27
2018-12-26T16:27:03.226Z,124.60
2018-12-26T16:29:32.883Z,121.93
2018-12-26T16:32:02.771Z,142.40
2018-12-26T16:34:32.359Z,107.33
2018-12-26T16:37:02.371Z,160.10
2018-12-26T16:39:35.837Z,167.50
2018-12-26T16:42:03.318Z,148.50
2018-12-26T16:44:33.002Z,109.63
2018-12-26T16:47:03.084Z,186.33
2018-12-26T16:49:32.938Z,147.00
2018-12-26T16:52:06.841Z,159.50
2018-12-26T16:54:36.279Z,208.93
2018-12-26T16:57:06.442Z,211.87
2018-12-26T16:59:36.185Z,211.00
2018-12-26T17:02:05.698Z,195.93
2018-12-26T17:04:35.451Z,210.27
2018-12-26T17:07:05.820Z,227.60
2018-12-26T17:09:35.447Z,260.57
2018-12-26T17:12:05.052Z,152.43
2018-12-26T17:14:39.395Z,138.10
2018-12-26T17:17:10.569Z,161.17
2018-12-26T17:19:40.316Z,171.63
2018-12-26T17:22:10.182Z,154.63
2018-12-26T17:24:40.097Z,151.37
2018-12-26T17:27:09.394Z,138.97
2018-12-26T17:29:39.750Z,141.13
2018-12-26T17:32:09.080Z,125.37
2018-12-26T17:34:38.723Z,119.57
2018-12-26T17:37:08.375Z,124.30
2018-12-26T17:39:38.396Z,119.33
2018-12-26T17:42:08.292Z,159.17
2018-12-26T17:44:38.074Z,181.33
2018-12-26T17:47:27.100Z,153.20
2018-12-26T17:50:33.702Z,155.50
2018-12-26T17:53:03.468Z,161.10
2018-12-26T17:55:58.130Z,160.23
2018-12-26T17:58:29.714Z,182.23
2018-12-26T18:01:31.246Z,187.33
2018-12-26T18:04:01.461Z,110.57
2018-12-26T18:06:31.388Z,148.00
2018-12-26T18:09:00.722Z,185.77
2018-12-26T18:11:30.843Z,128.33
2018-12-26T18:14:00.369Z,164.37
2018-12-26T18:16:30.357Z,130.80
2018-12-26T18:19:00.111Z,128.30
2018-12-26T18:21:29.416Z,155.03
2018-12-26T18:23:59.248Z,161.80
2018-12-26T18:26:29.106Z,142.77
2018-12-26T18:28:59.332Z,151.17
2018-12-26T18:31:29.323Z,126.30
2018-12-26T18:33:58.590Z,114.37
2018-12-26T18:36:27.916Z,110.53
2018-12-26T18:38:57.501Z,104.37
2018-12-26T18:41:27.938Z,107.40
2018-12-26T18:43:57.891Z,109.17
2018-12-26T18:46:27.715Z,113.67
2018-12-26T18:48:57.116Z,111.63
2018-12-26T18:51:26.432Z,104.17
2018-12-26T18:53:56.301Z,84.90
2018-12-26T18:56:25.979Z,88.63
2018-12-26T18:58:55.623Z,84.43
2018-12-26T19:01:30.626Z,83.17
2018-12-26T19:03:56.626Z,77.13
2018-12-26T19:06:25.986Z,110.53
2018-12-26T19:08:56.422Z,98.00
2018-12-26T19:11:26.031Z,91.13
2018-12-26T19:13:55.738Z,94.70
2018-12-26T19:16:25.126Z,87.77
2018-12-26T19:18:55.261Z,73.83
2018-12-26T19:21:24.852Z,73.20
2018-12-26T19:23:55.083Z,72.50
2018-12-26T19:26:24.851Z,90.43
2018-12-26T19:28:54.677Z,84.33
2018-12-26T19:31:24.776Z,77.10
2018-12-26T19:33:54.093Z,80.13
2018-12-26T19:36:23.925Z,82.17
2018-12-26T19:38:54.119Z,90.33
2018-12-26T19:41:23.822Z,85.37
2018-12-26T19:43:53.535Z,81.50
2018-12-26T19:46:23.258Z,80.83
2018-12-26T19:48:53.136Z,73.33
2018-12-26T19:51:22.890Z,78.30
2018-12-26T19:53:53.147Z,93.53
2018-12-26T19:56:23.253Z,89.13
2018-12-26T19:58:53.397Z,78.97
2018-12-26T20:01:24.135Z,80.47
2018-12-26T20:03:54.377Z,78.33
2018-12-26T20:06:24.417Z,76.93
2018-12-26T20:08:53.913Z,63.80
2018-12-26T20:11:23.368Z,72.93
2018-12-26T20:13:53.672Z,84.80
2018-12-26T20:16:23.059Z,79.80
2018-12-26T20:18:57.346Z,54.90
2018-12-26T20:21:26.948Z,63.30
2018-12-26T20:23:57.635Z,75.13
2018-12-26T20:26:27.805Z,81.77
2018-12-26T20:28:57.138Z,72.87
2018-12-26T20:31:26.398Z,96.00
2018-12-26T20:33:56.135Z,95.87
2018-12-26T20:36:25.525Z,98.47
2018-12-26T20:38:55.034Z,82.37
2018-12-26T20:41:24.802Z,81.67
2018-12-26T20:43:54.850Z,88.40
2018-12-26T20:46:26.256Z,87.03
2018-12-26T20:48:55.543Z,86.23
2018-12-26T20:51:25.669Z,80.53
2018-12-26T20:53:55.264Z,72.20
2018-12-26T20:56:24.628Z,77.77
2018-12-26T20:58:54.308Z,70.27
2018-12-26T21:01:24.135Z,72.03
2018-12-26T21:03:53.731Z,68.50
2018-12-26T21:06:22.991Z,71.20
2018-12-26T21:09:11.882Z,62.10
2018-12-26T21:11:41.507Z,71.70
2018-12-26T21:14:11.166Z,55.97
2018-12-26T21:16:40.991Z,60.07
2018-12-26T21:19:10.940Z,57.63
2018-12-26T21:21:40.215Z,72.13
2018-12-26T21:24:09.566Z,70.60
2018-12-26T21:26:39.091Z,73.80
2018-12-26T21:29:08.840Z,59.80
2018-12-26T21:31:38.065Z,62.37
2018-12-26T21:34:07.991Z,75.20
2018-12-26T21:36:37.275Z,60.30
2018-12-26T21:39:07.982Z,76.83
2018-12-26T21:41:37.332Z,69.07
2018-12-26T21:44:07.288Z,73.83
2018-12-26T21:46:36.876Z,59.00
2018-12-26T21:49:07.034Z,59.80
2018-12-26T21:51:36.331Z,52.73
2018-12-26T21:54:06.457Z,73.13
2018-12-26T21:56:36.721Z,55.43
2018-12-26T21:59:25.435Z,52.53
2018-12-26T22:01:55.022Z,53.20
2018-12-26T22:04:24.300Z,54.57
2018-12-26T22:06:53.706Z,40.63
2018-12-26T22:09:24.085Z,48.87
2018-12-26T22:11:53.872Z,52.47
2018-12-26T22:14:23.508Z,48.30
2018-12-26T22:16:53.099Z,38.77
2018-12-26T22:19:22.468Z,33.73
2018-12-26T22:21:52.353Z,36.83
2018-12-26T22:24:22.836Z,32.33
2018-12-26T22:26:52.062Z,32.40
2018-12-26T22:29:22.045Z,27.37
2018-12-26T22:31:52.085Z,37.80
2018-12-26T22:34:21.363Z,36.50
2018-12-26T22:36:51.318Z,43.07
2018-12-26T22:39:20.788Z,44.10
2018-12-26T22:41:50.181Z,43.47
2018-12-26T22:44:27.558Z,40.13
2018-12-26T22:47:09.975Z,33.77
2018-12-26T22:49:39.950Z,31.60
2018-12-26T22:52:09.979Z,33.10
2018-12-26T22:54:39.817Z,29.50
2018-12-26T22:57:09.705Z,31.83
2018-12-26T22:59:39.710Z,27.57
2018-12-26T23:02:09.999Z,34.57
2018-12-26T23:04:39.580Z,35.90
2018-12-26T23:07:09.323Z,33.73
2018-12-26T23:09:38.696Z,30.90
2018-12-26T23:12:08.135Z,33.73
2018-12-26T23:14:37.727Z,29.10
2018-12-26T23:17:07.000Z,29.80
2018-12-26T23:19:36.559Z,34.77
2018-12-26T23:22:06.591Z,34.90
2018-12-26T23:24:35.881Z,32.17
2018-12-26T23:27:05.296Z,37.07
2018-12-26T23:29:35.606Z,31.73
2018-12-26T23:32:05.360Z,32.53
2018-12-26T23:34:35.733Z,41.87
2018-12-26T23:37:04.995Z,35.20
2018-12-26T23:39:34.871Z,36.00
2018-12-26T23:42:04.868Z,37.93
2018-12-26T23:44:34.940Z,37.00
2018-12-26T23:47:04.471Z,39.40
2018-12-26T23:49:34.887Z,41.40
2018-12-26T23:52:05.322Z,41.77
2018-12-26T23:54:35.275Z,36.57
2018-12-26T23:57:04.847Z,37.47
2018-12-26T23:59:34.591Z,37.07
